Tampa, FL

10:58 AM EST on Νοέμβριος 24, 2014 (GMT -0500)
MacDill Air Force Base | Change Station
CLOSE
Current Station
Airport
Location: Tampa Macdill AFB,
Elevation: 13 ft
Nearby Weather Stations

Elev 13 ft 27.85 °N, 82.52 °W | Updated 1 hour ago

Αίθριος
Αίθριος
76 ° F
Feels Like 76 ° F
N
10
Ανεμος Μεταβλητός Ανεμος from Νότιος

Σήμερα
High -- | Low -- ° F
--% Chance of Precip.
Yesterday
High -- | Low -- ° F
Precip. -- in
6:58 AM 5:34 PM
Μηνίσκος, 6% visible
Ατμοσφαιρική Πίεση 30.00 in
Ορατότητα 10.0 Μίλια
Σύννεφα Αίθριος
Σημείο Δρόσου 76 ° F
Υγρασία 100%
Rainfall 0.00 in
Snow Depth Not available.
Υπεριώδης ακτινοβολία (UV) 4 out of 12
Pollen 1.60 out of 12
Air Quality Not available.
Flu Activity Not available.
METAR KMCF 241458Z AUTO 18009KT 10SM CLR 24/24 A2999 RMK AO2 SLP159 T02430243 52014

More Conditions Fewer Conditions

Ατμοσφαιρική Πίεση 30.00 in
Ορατότητα 10.0 Μίλια
Σύννεφα Αίθριος
Σημείο Δρόσου 76 ° F
Υγρασία 100%
Rainfall 0.00 in
Snow Depth Not available.
Υπεριώδης ακτινοβολία (UV) 4 out of 12
Pollen 1.60 out of 12
Air Quality Not available.
Flu Activity Not available.
METAR KMCF 241458Z AUTO 18009KT 10SM CLR 24/24 A2999 RMK AO2 SLP159 T02430243 52014

More Conditions Fewer Conditions

10-Day Weather Forecast

Almanac

Αστρονομία

Nov. 24, 2014 Rise Set
Actual Time
Civil Twilight
Nautical Twilight
Astronomical Twilight
Moon
Length Of Visible Light
Διάρκεια ημέρας
Tomorrow will be .
, % of the Moon is Illuminated

Today's Extremes

State Highs State Lows

Community

WunderPhotos

Upload Photos

1,773,363 photos uploaded!

WunderBlogs® & News

Nearby

Air Quality

  Air Quality AQ Index Pollutant
Not available.

Snow Depth

Station Depth Elevation

Earthquake Activity

City Distance Mag. Time & Date
Minimum magnitude displayed is 2.5.

Coastal Water Temperatures

Τοποθεσία Θερμοκρασία

Nearby Weather Stations